Milton, FL

11:41 PM CDT on August 27, 2014 (GMT -0500)
Milton, FL | Change Station
CLOSE
Current Station
Personal Weather Station
Location: Milton, FL
Elevation: 170 ft
Nearby Weather Stations

Elev 170 ft 30.65 °N, 87.06 °W | Updated 9 minutes ago

Scattered Clouds
Scattered Clouds
74.8 °F
Feels Like 74 °F
N
0.0
Wind Variable Wind from SSW
Gusts 0.0 mph

Today
High -- | Low -- °F
--% Chance of Precip.
Yesterday
High -- | Low -- °F
Precip. -- in
6:21 AM 7:17 PM
Waxing Crescent, 6% visible
Pressure 29.97 in
Visibility 10.0 miles
Clouds Few 7500 ft
Scattered Clouds 25000 ft
Heat Index 74 °F
Dew Point 71 °F
Humidity 89%
Rainfall 0.00 in
Snow Depth Not available.
UV 0 out of 12
Pollen 8.00 out of 12
PM2.5 Good
Flu Activity Not available.
METAR KNDZ 280356Z 00000KT 10SM FEW075 SCT250 26/21 A3002 RMK AO2 SLP148 T02560211 $

More Conditions Fewer Conditions

Pressure 29.97 in
Visibility 10.0 miles
Clouds Few 7500 ft
Scattered Clouds 25000 ft
Heat Index 74 °F
Dew Point 71 °F
Humidity 89%
Rainfall 0.00 in
Snow Depth Not available.
UV 0 out of 12
Pollen 8.00 out of 12
PM2.5 Good
Flu Activity Not available.
METAR KNDZ 280356Z 00000KT 10SM FEW075 SCT250 26/21 A3002 RMK AO2 SLP148 T02560211 $

More Conditions Fewer Conditions

10-Day Weather Forecast

Almanac

Astronomy

Aug. 27, 2014 Rise Set
Actual Time 6:21 AM CDT 7:17 PM CDT
Civil Twilight 5:56 AM CDT 7:41 PM CDT
Nautical Twilight 5:27 AM CDT 8:10 PM CDT
Astronomical Twilight 4:57 AM CDT 8:40 PM CDT
Moon 8:06 AM CDT (8/27) 8:21 PM CDT (8/27)
Length of Visible Light 13h 44m
Length of Day
12h 55m
Tomorrow will be 1m 45s shorter.
Waxing Crescent, 6% of the Moon is Illuminated
Aug 28
Waxing Crescent
Sep 2
First Quarter
Sep 8
Full
Sep 15
Last Quarter
Sep 24
New

Today's Extremes

State Highs State Lows

Community

WunderPhotos

Upload Photos

1,747,907 photos uploaded!

Nearby

Air Quality

  Air Quality AQ Index Pollutant
Yesterday Good
OZONE
Yesterday Good
PM2.5
Current Good
PM2.5
Wednesday Good
OZONE
Wednesday Good
PM2.5
Thursday Moderate
PM2.5
Thursday Good
OZONE

Snow Depth

Station Depth Elevation
No new snow has been reported.

Earthquake Activity

City Distance Mag. Time & Date
No recent earthquake activity has been reported nearby.
Minimum magnitude displayed is 2.5.

Coastal Water Temperatures

Place Temperature
No Stations Reporting

Nearby Weather Stations